Data for 02/19/2015

Time Sea-Level Adjusted Pressure Absolute Pressure Temperature Relative Humidity Dew Point   
(mb) (inHg) (mb) (inHg) (C) (F) (%) (C) (F)
00:05 1018 30.06 847 25.01 5.7 42.2 42 -6.3 20.7
00:10 1018 30.06 847 25.01 5.9 42.6 39 -7 19.4
00:15 1018 30.06 847 25.01 6.4 43.5 38 -7.1 19.3
00:20 1018 30.06 847 25.01 6.6 43.9 39 -6.4 20.5
00:25 1018 30.06 847 25.01 6.5 43.7 40 -6.1 21
00:30 1018 30.06 847 25.01 6.2 43.2 42 -5.8 21.6
00:35 1018 30.06 847 25.01 6.2 43.1 40 -6.4 20.4
00:40 1018 30.06 847 25.01 6.4 43.6 40 -6.2 20.9
00:45 1018 30.06 847 25.01 6.6 43.8 39 -6.5 20.3
00:50 1018 30.06 847 25.01 6.8 44.3 37 -6.8 19.8
00:55 1018 30.06 847 25.01 7 44.6 36 -6.9 19.5
01:00 1018 30.06 847 25.01 7.2 44.9 36 -6.8 19.8
01:05 1018 30.06 847 25.01 7.3 45.1 36 -6.9 19.7
01:10 1018 30.06 847 25.01 7.3 45.1 36 -6.9 19.6
01:15 1018 30.06 847 25.01 7.2 45 36 -6.8 19.7
01:20 1018 30.06 847 25.01 7.2 44.9 36 -6.8 19.8
01:25 1018 30.06 847 25.01 7.2 44.9 36 -6.8 19.7
01:30 1018 30.06 847 25.01 7.1 44.8 37 -6.7 20
01:35 1018 30.06 847 25.01 7 44.6 37 -6.7 20
01:40 1018 30.06 848 25.04 7 44.5 38 -6.5 20.3
01:45 1018 30.06 847 25.01 6.7 44 42 -5.4 22.3
01:50 1018 30.06 847 25.01 5.8 42.4 44 -5.6 22
01:55 1018 30.06 847 25.01 5.6 42.1 43 -6 21.2
02:00 1018 30.06 847 25.01 5.8 42.4 43 -5.7 21.7
02:05 1018 30.06 847 25.01 5.6 42.1 44 -5.8 21.5
02:10 1018 30.06 847 25.01 5.5 41.9 45 -5.6 22
02:15 1018 30.06 847 25.01 5.2 41.3 45 -5.8 21.6
02:20 1018 30.06 847 25.01 5.3 41.5 44 -6 21.1
02:25 1018 30.06 847 25.01 5.3 41.5 44 -6 21.1
02:30 1018 30.06 847 25.01 5.3 41.5 44 -6 21.1
02:35 1018 30.06 847 25.01 5.2 41.3 45 -5.9 21.5
02:40 1018 30.06 847 25.01 4.9 40.9 44 -6.2 20.9
02:45 1018 30.06 847 25.01 5.1 41.2 45 -5.9 21.3
02:50 1018 30.06 847 25.01 5 41.1 45 -6 21.2
02:55 1018 30.06 847 25.01 4.9 40.8 46 -5.8 21.6
03:00 1018 30.06 847 25.01 4.6 40.4 47 -5.8 21.6
03:05 1018 30.06 847 25.01 4.5 40.1 47 -6 21.3
03:10 1018 30.06 847 25.01 4.6 40.2 45 -6.2 20.8
03:15 1018 30.06 847 25.01 4.8 40.7 45 -6 21.1
03:20 1018 30.06 847 25.01 4.6 40.3 46 -6.1 21.1
03:25 1018 30.06 847 25.01 4.6 40.3 46 -6 21.1
03:30 1018 30.06 847 25.01 4.4 40 48 -5.7 21.8
03:35 1018 30.06 847 25.01 4.2 39.5 48 -5.9 21.4
03:40 1018 30.06 847 25.01 4.1 39.4 47 -6.2 20.9
03:45 1018 30.06 847 25.01 4.4 39.9 45 -6.4 20.4
03:50 1018 30.06 847 25.01 4.8 40.6 44 -6.5 20.3
03:55 1018 30.06 847 25.01 5 41 43 -6.5 20.3
04:00 1018 30.06 847 25.01 4.9 40.8 44 -6.4 20.5
04:05 1018 30.06 847 25.01 4.7 40.5 44 -6.6 20.2
04:10 1018 30.06 847 25.01 4.6 40.2 47 -5.7 21.7
04:15 1018 30.06 847 25.01 3.7 38.7 51 -5.4 22.2
04:20 1017 30.03 847 25.01 3.4 38.1 50 -6.1 21.1
04:25 1017 30.03 847 25.01 3.4 38.1 50 -5.9 21.3
04:30 1017 30.03 846 24.98 3.6 38.4 49 -6.1 21.1
04:35 1017 30.03 846 24.98 3.8 38.8 47 -6.6 20.1
04:40 1017 30.03 846 24.98 4.1 39.4 47 -6.1 21
04:45 1017 30.03 846 24.98 4 39.1 47 -6.2 20.8
04:50 1017 30.03 846 24.98 4 39.2 46 -6.6 20.2
04:55 1017 30.03 846 24.98 4 39.2 49 -5.8 21.5
05:00 1017 30.03 846 24.98 3.8 38.9 46 -6.6 20
05:05 1017 30.03 846 24.98 4.2 39.6 44 -6.9 19.5
05:10 1017 30.03 846 24.98 4.6 40.3 43 -6.9 19.6
05:15 1017 30.03 846 24.98 4.4 39.9 47 -6.1 21.1
05:20 1017 30.03 846 24.98 4.1 39.4 43 -7.3 18.9
05:25 1017 30.03 846 24.98 4.7 40.4 44 -6.5 20.2
05:30 1017 30.03 846 24.98 4.5 40.2 42 -7.2 19
05:35 1017 30.03 846 24.98 4.7 40.4 45 -6.1 21
05:40 1017 30.03 846 24.98 4 39.3 45 -6.8 19.7
05:45 1017 30.03 846 24.98 4.2 39.5 45 -6.9 19.6
05:50 1017 30.03 846 24.98 3.7 38.6 51 -5.6 21.8
05:55 1017 30.03 847 25.01 2.5 36.4 51 -6.7 20
06:00 1018 30.06 847 25.01 2.9 37.3 49 -6.8 19.8
06:05 1018 30.06 847 25.01 3 37.3 50 -6.4 20.4
06:10 1018 30.06 847 25.01 2.9 37.2 49 -6.8 19.8
06:15 1018 30.06 847 25.01 3 37.4 49 -6.7 20
06:20 1018 30.06 847 25.01 2.9 37.3 49 -6.7 19.9
06:25 1018 30.06 847 25.01 2.9 37.2 49 -6.7 19.9
06:30 1018 30.06 847 25.01 2.6 36.7 52 -6.3 20.7
06:35 1018 30.06 847 25.01 2.2 36 52 -6.8 19.8
06:40 1018 30.06 847 25.01 2.2 36 53 -6.4 20.4
06:45 1018 30.06 847 25.01 2 35.5 53 -6.5 20.3
06:50 1018 30.06 847 25.01 2.5 36.5 50 -7 19.4
06:55 1018 30.06 847 25.01 2.4 36.3 54 -6 21.2
07:00 1018 30.06 847 25.01 2 35.7 51 -7.1 19.2
07:05 1018 30.06 847 25.01 2.7 36.9 49 -6.9 19.6
07:10 1018 30.06 847 25.01 2.7 36.9 49 -6.8 19.7
07:15 1018 30.06 847 25.01 2.6 36.7 51 -6.6 20.1
07:20 1018 30.06 847 25.01 2.5 36.4 51 -6.6 20
07:25 1018 30.06 847 25.01 2.2 36 52 -6.6 20.1
07:30 1018 30.06 847 25.01 2.2 35.9 52 -6.6 20.1
07:35 1018 30.06 847 25.01 2.4 36.3 51 -6.8 19.8
07:40 1018 30.06 847 25.01 2.3 36.2 54 -6 21.1
07:45 1018 30.06 847 25.01 2 35.6 53 -6.5 20.3
07:50 1018 30.06 847 25.01 2.2 35.9 53 -6.4 20.5
07:55 1018 30.06 847 25.01 2 35.6 55 -6.2 20.8
08:00 1018 30.06 847 25.01 1.8 35.3 55 -6.3 20.7
08:05 1018 30.06 847 25.01 1.8 35.2 56 -6.1 21.1
08:10 1018 30.06 847 25.01 1.5 34.7 58 -6 21.3
08:15 1018 30.06 847 25.01 1.3 34.4 58 -6 21.3
08:20 1018 30.06 847 25.01 1.5 34.7 54 -6.8 19.7
08:25 1018 30.06 847 25.01 1.8 35.2 55 -6.3 20.6
08:30 1018 30.06 847 25.01 1.7 35.1 55 -6.4 20.5
08:35 1018 30.06 847 25.01 1.8 35.3 54 -6.4 20.5
08:40 1018 30.06 847 25.01 1.8 35.3 56 -6.1 21
08:45 1018 30.06 847 25.01 1.7 35.1 57 -6 21.3
08:50 1018 30.06 847 25.01 1.8 35.3 56 -6.1 21
08:55 1018 30.06 847 25.01 1.9 35.5 54 -6.4 20.5
09:00 1018 30.06 848 25.04 1.9 35.5 53 -6.6 20.1
09:05 1018 30.06 848 25.04 1.9 35.5 54 -6.4 20.5
09:10 1018 30.06 848 25.04 2.1 35.8 54 -6.4 20.5
09:15 1019 30.09 848 25.04 2.1 35.8 53 -6.6 20.1
09:20 1019 30.09 848 25.04 2 35.6 52 -6.8 19.8
09:25 1019 30.09 848 25.04 2.2 35.9 52 -6.6 20
09:30 1019 30.09 848 25.04 2.3 36.2 53 -6.4 20.5
09:35 1019 30.09 848 25.04 2.7 36.9 50 -6.6 20.1
09:40 1019 30.09 848 25.04 2.7 36.9 51 -6.5 20.4
09:45 1019 30.09 848 25.04 2.6 36.8 50 -6.7 20
09:50 1019 30.09 848 25.04 2.9 37.2 50 -6.5 20.2
09:55 1019 30.09 848 25.04 3 37.4 53 -5.7 21.7
10:00 1019 30.09 848 25.04 2.9 37.2 53 -5.8 21.5
10:05 1019 30.09 848 25.04 3.3 37.9 51 -5.9 21.4
10:10 1019 30.09 848 25.04 3.6 38.5 50 -5.9 21.3
10:15 1019 30.09 848 25.04 4.4 39.9 43 -7.1 19.2
10:20 1019 30.09 848 25.04 5.1 41.1 44 -6.1 21
10:25 1019 30.09 848 25.04 5.5 41.8 42 -6.4 20.5
10:30 1019 30.09 848 25.04 5.9 42.6 41 -6.4 20.4
10:35 1019 30.09 848 25.04 6.2 43.1 38 -7.1 19.2
10:40 1019 30.09 848 25.04 6.2 43.2 38 -7 19.4
10:45 1019 30.09 848 25.04 6.3 43.4 37 -7.3 18.9
10:50 1019 30.09 848 25.04 6.4 43.4 37 -7.2 19
10:55 1019 30.09 848 25.04 6.3 43.4 37 -7.3 18.8
11:00 1019 30.09 848 25.04 6.4 43.5 35 -7.8 17.9
11:05 1019 30.09 848 25.04 6.4 43.6 35 -7.9 17.8
11:10 1019 30.09 848 25.04 6.6 43.9 36 -7.6 18.4
11:15 1019 30.09 848 25.04 6.7 44.1 34 -8 17.6
11:20 1019 30.09 848 25.04 6.9 44.4 34 -8 17.6
11:25 1019 30.09 848 25.04 7.1 44.8 33 -8 17.5
11:30 1019 30.09 848 25.04 7.3 45.2 33 -7.8 18
11:35 1019 30.09 848 25.04 7.6 45.6 32 -8 17.6
11:40 1019 30.09 848 25.04 8 46.3 31 -8.3 17.1
11:45 1019 30.09 848 25.04 8.3 46.9 30 -8.2 17.2
11:50 1019 30.09 848 25.04 8.6 47.6 29 -8.3 17
11:55 1019 30.09 848 25.04 8.7 47.6 29 -8.5 16.7
12:00 1019 30.09 848 25.04 8.6 47.6 29 -8.5 16.8
12:05 1018 30.06 848 25.04 8.6 47.5 29 -8.7 16.4
12:10 1018 30.06 848 25.04 8.5 47.2 29 -8.8 16.2
12:15 1018 30.06 848 25.04 8.7 47.6 27 -9.1 15.6
12:20 1018 30.06 848 25.04 8.6 47.6 27 -9.4 15.1
12:25 1018 30.06 848 25.04 8.5 47.2 27 -9.4 15
12:30 1018 30.06 848 25.04 8.7 47.7 27 -9.4 15.1
12:35 1018 30.06 848 25.04 8.7 47.6 27 -9.2 15.4
12:40 1018 30.06 847 25.01 8.8 47.8 27 -9.3 15.2
12:45 1018 30.06 847 25.01 8.6 47.5 26 -9.9 14.2
12:50 1018 30.06 847 25.01 8.5 47.3 26 -9.8 14.3
12:55 1018 30.06 847 25.01 8.5 47.4 26 -9.8 14.4
13:00 1018 30.06 847 25.01 8.5 47.3 27 -9.5 14.9
13:05 1018 30.06 847 25.01 8.7 47.6 28 -9 15.7
13:10 1018 30.06 847 25.01 8.5 47.4 29 -8.4 16.8
13:15 1018 30.06 847 25.01 8.3 46.9 28 -9.2 15.5
13:20 1018 30.06 847 25.01 8 46.3 31 -8.3 17
13:25 1018 30.06 847 25.01 7.3 45.1 33 -8 17.6
13:30 1018 30.06 847 25.01 7.2 44.9 32 -8.6 16.6
13:35 1018 30.06 847 25.01 7.7 45.8 31 -8.6 16.6
13:40 1018 30.06 847 25.01 7.7 45.9 31 -8.3 17.1
13:45 1018 30.06 847 25.01 7.9 46.3 31 -8.3 17.1
13:50 1018 30.06 847 25.01 8.1 46.7 31 -8.2 17.3
13:55 1018 30.06 847 25.01 8.3 46.9 31 -8.1 17.5
14:00 1017 30.03 847 25.01 8.2 46.7 31 -8 17.6
14:05 1017 30.03 847 25.01 7.9 46.2 30 -8.8 16.1
14:10 1017 30.03 846 24.98 7.9 46.3 29 -8.9 15.9
14:15 1017 30.03 846 24.98 8.1 46.5 27 -9.9 14.1
14:20 1017 30.03 846 24.98 7.9 46.2 27 -9.8 14.3
14:25 1017 30.03 846 24.98 8.1 46.6 27 -9.8 14.4
14:30 1017 30.03 846 24.98 8.4 47.1 26 -9.9 14.2
14:35 1017 30.03 846 24.98 8.7 47.6 26 -10 14
14:40 1017 30.03 846 24.98 8.9 48 25 -10.2 13.6
14:45 1017 30.03 846 24.98 9 48.2 26 -9.7 14.5
14:50 1017 30.03 846 24.98 9 48.3 25 -10 14.1
14:55 1017 30.03 846 24.98 8.8 47.8 25 -10.3 13.4
15:00 1017 30.03 846 24.98 9 48.2 25 -10.2 13.7
15:05 1017 30.03 846 24.98 9.1 48.3 24 -10.3 13.5
15:10 1016 30 846 24.98 9.1 48.3 24 -10.5 13.1
15:15 1016 30 846 24.98 9.2 48.6 24 -10.5 13.1
15:20 1016 30 846 24.98 9.2 48.5 24 -10.5 13.2
15:25 1016 30 846 24.98 9.2 48.6 23 -10.6 12.8
15:30 1016 30 846 24.98 9.2 48.5 24 -10.5 13
15:35 1016 30 846 24.98 9.2 48.6 24 -10.6 13
15:40 1016 30 846 24.98 9.2 48.5 23 -10.7 12.7
15:45 1016 30 846 24.98 9.2 48.5 23 -10.7 12.7
15:50 1016 30 846 24.98 9 48.1 24 -10.6 13
15:55 1016 30 845 24.95 8.7 47.7 24 -10.6 13
16:00 1016 30 845 24.95 8.8 47.8 25 -10.4 13.3
16:05 1016 30 845 24.95 8.8 47.9 25 -10.1 13.8
16:10 1016 30 845 24.95 8.6 47.5 25 -10.3 13.4
16:15 1016 30 845 24.95 8.6 47.5 26 -9.7 14.5
16:20 1016 30 845 24.95 8.7 47.6 25 -10.4 13.2
16:25 1016 30 845 24.95 9 48.2 25 -10.2 13.6
16:30 1016 30 845 24.95 8.7 47.7 28 -8.8 16.2
16:35 1016 30 845 24.95 8.4 47.1 28 -9.3 15.3
16:40 1016 30 845 24.95 8.4 47.1 29 -8.8 16.2
16:45 1016 30 845 24.95 8.3 47 27 -9.7 14.6
16:50 1016 30 845 24.95 8.5 47.3 29 -8.6 16.5
16:55 1016 30 845 24.95 8.4 47 30 -8.3 17
17:00 1016 30 845 24.95 8.2 46.8 29 -8.8 16.1
17:05 1016 30 845 24.95 8.4 47.2 26 -10 14
17:10 1016 30 845 24.95 8.7 47.7 25 -10 13.9
17:15 1016 30 845 24.95 8.7 47.6 28 -8.8 16.1
17:20 1016 30 845 24.95 8.6 47.4 27 -9.2 15.5
17:25 1016 30 845 24.95 8.2 46.8 32 -7.6 18.3
17:30 1016 30 845 24.95 7.9 46.2 30 -8.6 16.5
17:35 1016 30 845 24.95 8.1 46.6 31 -8.1 17.3
17:40 1016 30 845 24.95 8.1 46.6 30 -8.6 16.5
17:45 1016 30 845 24.95 8.2 46.7 30 -8.6 16.6
17:50 1016 30 845 24.95 8.3 46.9 29 -8.7 16.4
17:55 1016 30 845 24.95 8.1 46.5 32 -7.4 18.6
18:00 1016 30 845 24.95 7.9 46.1 32 -7.7 18.1
18:05 1016 30 845 24.95 7.9 46.3 30 -8.4 16.8
18:10 1016 30 845 24.95 8.1 46.5 31 -8.2 17.2
18:15 1016 30 845 24.95 8 46.4 31 -7.9 17.8
18:20 1016 30 845 24.95 8.1 46.6 31 -8.2 17.2
18:25 1016 30 845 24.95 8.1 46.7 30 -8.3 17.1
18:30 1016 30 845 24.95 8.1 46.5 31 -8.2 17.2
18:35 1016 30 845 24.95 8 46.5 31 -8.2 17.3
18:40 1016 30 845 24.95 7.9 46.3 31 -8.4 17
18:45 1016 30 845 24.95 7.9 46.2 31 -8.3 17
18:50 1015 29.97 845 24.95 7.9 46.1 31 -8.4 16.8
18:55 1015 29.97 845 24.95 7.9 46.1 31 -8.4 16.9
19:00 1016 30 845 24.95 7.9 46.1 31 -8.3 17
19:05 1016 30 845 24.95 7.8 46.1 31 -8.4 16.9
19:10 1016 30 845 24.95 7.8 46 31 -8.4 16.8
19:15 1016 30 845 24.95 7.6 45.7 31 -8.4 16.8
19:20 1016 30 845 24.95 7.4 45.3 32 -8.1 17.4
19:25 1016 30 845 24.95 7.2 45 33 -8 17.6
19:30 1016 30 845 24.95 7.1 44.7 33 -8.3 17
19:35 1016 30 845 24.95 7 44.6 33 -8.3 17
19:40 1016 30 845 24.95 6.9 44.4 33 -8.2 17.2
19:45 1016 30 845 24.95 6.8 44.3 32 -8.6 16.4
19:50 1016 30 845 24.95 6.7 44.1 32 -8.8 16.2
19:55 1016 30 845 24.95 6.7 44.1 32 -9.1 15.7
20:00 1016 30 845 24.95 6.7 44.1 31 -9.1 15.6
20:05 1016 30 845 24.95 6.7 44.1 32 -8.9 16
20:10 1016 30 845 24.95 6.5 43.7 33 -8.8 16.1
20:15 1016 30 845 24.95 6.4 43.5 32 -8.9 15.9
20:20 1016 30 845 24.95 6.4 43.5 33 -8.8 16.2
20:25 1016 30 845 24.95 6.3 43.4 34 -8.5 16.7
20:30 1016 30 845 24.95 6.2 43.1 34 -8.5 16.8
20:35 1016 30 845 24.95 6.1 43 34 -8.5 16.7
20:40 1016 30 845 24.95 6.1 42.9 36 -7.8 17.9
20:45 1016 30 845 24.95 5.8 42.4 36 -8.2 17.3
20:50 1016 30 845 24.95 5.9 42.6 36 -8.2 17.2
20:55 1016 30 845 24.95 5.9 42.7 38 -7.2 19
21:00 1016 30 845 24.95 6.2 43.1 36 -7.6 18.2
21:05 1016 30 845 24.95 6.1 43 40 -6.6 20.2
21:10 1016 30 845 24.95 6 42.7 42 -6.1 21
21:15 1016 30 845 24.95 5.9 42.6 48 -4.3 24.2
21:20 1016 30 845 24.95 5.4 41.8 48 -4.7 23.5
21:25 1016 30 845 24.95 5.4 41.6 46 -5.4 22.3
21:30 1016 30 845 24.95 5.5 41.8 45 -5.5 22.1
21:35 1016 30 845 24.95 5.4 41.8 47 -5.1 22.9
21:40 1016 30 845 24.95 5.3 41.6 44 -6 21.2
21:45 1015 29.97 845 24.95 5.6 42.1 42 -6.2 20.8
21:50 1016 30 845 24.95 5.5 41.9 46 -5.2 22.6
21:55 1016 30 845 24.95 5.3 41.5 44 -6.1 21
22:00 1016 30 845 24.95 5.4 41.8 43 -6 21.2
22:05 1016 30 845 24.95 5.5 41.8 43 -6 21.2
22:10 1016 30 845 24.95 5.4 41.7 43 -6.2 20.8
22:15 1016 30 845 24.95 5.4 41.7 44 -5.9 21.4
22:20 1016 30 845 24.95 5.2 41.3 49 -4.8 23.4
22:25 1016 30 845 24.95 4.9 40.8 49 -5 23
22:30 1016 30 845 24.95 4.9 40.8 49 -4.8 23.3
22:35 1016 30 845 24.95 4.8 40.6 54 -3.8 25.2
22:40 1016 30 845 24.95 4.4 39.8 59 -3 26.5
22:45 1016 30 845 24.95 3.8 38.9 63 -2.6 27.4
22:50 1016 30 845 24.95 3.3 38 72 -1.2 29.8
22:55 1016 30 845 24.95 2.4 36.4 81 -0.5 31
23:00 1016 30 845 24.95 2 35.6 79 -1.4 29.5
23:05 1016 30 845 24.95 2.1 35.8 78 -1.3 29.7
23:10 1016 30 845 24.95 2 35.7 81 -0.8 30.5
23:15 1016 30 845 24.95 1.5 34.7 86 -0.5 31
23:20 1016 30 845 24.95 1.1 34.1 89 -0.5 31.1
23:25 1016 30 845 24.95 1.1 33.9 89 -0.6 31
23:30 1016 30 845 24.95 1 33.8 90 -0.5 31.1
23:35 1016 30 845 24.95 1 33.8 90 -0.5 31.2
23:40 1016 30 845 24.95 0.9 33.7 91 -0.4 31.2
23:45 1016 30 845 24.95 0.9 33.6 91 -0.4 31.2
23:50 1016 30 845 24.95 0.8 33.5 92 -0.4 31.3
23:55 1016 30 845 24.95 0.8 33.4 92 -0.4 31.2
24:00 1016 30 845 24.95 0.7 33.3 92 -0.4 31.2